createdAt,value
2017-12-24T00:00:49.595Z,8.80
2017-12-24T00:03:17.185Z,8.80
2017-12-24T00:05:45.459Z,8.70
2017-12-24T00:08:12.972Z,8.70
2017-12-24T00:10:40.532Z,8.70
2017-12-24T00:13:08.042Z,8.70
2017-12-24T00:15:35.588Z,8.70
2017-12-24T00:18:03.127Z,8.70
2017-12-24T00:20:30.717Z,8.70
2017-12-24T00:22:58.236Z,8.70
2017-12-24T00:25:25.759Z,8.70
2017-12-24T00:27:54.068Z,8.70
2017-12-24T00:30:21.586Z,8.70
2017-12-24T00:32:49.157Z,8.70
2017-12-24T00:35:16.687Z,8.70
2017-12-24T00:37:44.254Z,8.80
2017-12-24T00:40:11.768Z,8.80
2017-12-24T00:42:39.345Z,8.80
2017-12-24T00:45:06.847Z,8.80
2017-12-24T00:47:35.124Z,8.80
2017-12-24T00:50:02.681Z,8.80
2017-12-24T00:52:30.188Z,8.80
2017-12-24T00:54:58.640Z,8.80
2017-12-24T00:57:26.154Z,8.80
2017-12-24T00:59:54.472Z,8.90
2017-12-24T01:02:21.980Z,8.90
2017-12-24T01:04:49.524Z,8.90
2017-12-24T01:07:17.040Z,8.90
2017-12-24T01:09:44.560Z,8.90
2017-12-24T01:12:12.109Z,8.90
2017-12-24T01:14:40.385Z,8.90
2017-12-24T01:17:07.933Z,8.90
2017-12-24T01:19:35.440Z,8.90
2017-12-24T01:22:03.005Z,8.90
2017-12-24T01:24:31.291Z,8.90
2017-12-24T01:26:58.861Z,8.90
2017-12-24T01:29:27.140Z,8.90
2017-12-24T01:31:54.705Z,8.90
2017-12-24T01:34:22.224Z,8.90
2017-12-24T01:36:49.747Z,8.90
2017-12-24T01:39:17.299Z,8.90
2017-12-24T01:41:44.817Z,8.90
2017-12-24T01:44:13.156Z,8.90
2017-12-24T01:46:40.673Z,8.90
2017-12-24T01:49:08.989Z,8.90
2017-12-24T01:51:36.519Z,8.90
2017-12-24T01:54:04.064Z,8.90
2017-12-24T01:56:32.342Z,8.80
2017-12-24T01:58:59.884Z,8.80
2017-12-24T02:01:27.395Z,8.80
2017-12-24T02:03:54.956Z,8.80
2017-12-24T02:06:22.464Z,8.80
2017-12-24T02:08:49.974Z,8.80
2017-12-24T02:11:17.526Z,8.80
2017-12-24T02:13:45.800Z,8.80
2017-12-24T02:16:13.343Z,8.80
2017-12-24T02:18:40.853Z,8.80
2017-12-24T02:21:08.400Z,8.70
2017-12-24T02:23:36.233Z,8.70
2017-12-24T02:28:54.671Z,8.70
2017-12-24T02:31:22.407Z,8.70
2017-12-24T02:33:49.917Z,8.70
2017-12-24T02:36:17.432Z,8.70
2017-12-24T02:38:45.751Z,8.70
2017-12-24T02:41:13.276Z,8.70
2017-12-24T02:43:40.824Z,8.70
2017-12-24T02:46:08.332Z,8.70
2017-12-24T02:48:36.644Z,8.70
2017-12-24T02:51:04.164Z,8.60
2017-12-24T02:53:31.771Z,8.70
2017-12-24T02:55:59.228Z,8.70
2017-12-24T02:58:26.780Z,8.70
2017-12-24T03:00:54.287Z,8.70
2017-12-24T03:03:22.612Z,8.70
2017-12-24T03:05:50.115Z,8.70
2017-12-24T03:08:17.621Z,8.70
2017-12-24T03:10:45.932Z,8.70
2017-12-24T03:13:13.472Z,8.70
2017-12-24T03:15:41.796Z,8.60
2017-12-24T03:18:09.300Z,8.60
2017-12-24T03:20:36.841Z,8.60
2017-12-24T03:23:04.343Z,8.70
2017-12-24T03:25:31.883Z,8.70
2017-12-24T03:27:59.397Z,8.70
2017-12-24T03:30:26.943Z,8.70
2017-12-24T03:32:54.520Z,8.70
2017-12-24T03:35:22.080Z,8.70
2017-12-24T03:37:49.583Z,8.70
2017-12-24T03:40:17.083Z,8.70
2017-12-24T03:42:45.391Z,8.70
2017-12-24T03:45:12.899Z,8.70
2017-12-24T03:47:40.444Z,8.70
2017-12-24T03:50:07.952Z,8.70
2017-12-24T03:52:35.493Z,8.70
2017-12-24T03:55:03.014Z,8.70
2017-12-24T03:57:30.568Z,8.70
2017-12-24T03:59:58.071Z,8.80
2017-12-24T04:02:26.388Z,8.70
2017-12-24T04:04:53.895Z,8.70
2017-12-24T04:07:22.167Z,8.70
2017-12-24T04:09:49.718Z,8.70
2017-12-24T04:12:17.260Z,8.70
2017-12-24T04:14:45.588Z,8.70
2017-12-24T04:17:13.096Z,8.70
2017-12-24T04:19:40.652Z,8.70
2017-12-24T04:22:08.924Z,8.70
2017-12-24T04:24:36.463Z,8.70
2017-12-24T04:27:04.740Z,8.70
2017-12-24T04:29:32.278Z,8.60
2017-12-24T04:31:59.783Z,8.70
2017-12-24T04:34:27.344Z,8.70
2017-12-24T04:36:54.838Z,8.70
2017-12-24T04:39:23.112Z,8.70
2017-12-24T04:41:50.648Z,8.60
2017-12-24T04:44:18.154Z,8.70
2017-12-24T04:46:45.695Z,8.70
2017-12-24T04:49:13.199Z,8.70
2017-12-24T04:51:40.742Z,8.70
2017-12-24T04:54:08.247Z,8.70
2017-12-24T04:56:35.788Z,8.70
2017-12-24T04:59:03.300Z,8.70
2017-12-24T05:01:31.634Z,8.80
2017-12-24T05:03:59.136Z,8.80
2017-12-24T05:06:26.641Z,8.80
2017-12-24T05:08:54.944Z,8.90
2017-12-24T05:11:22.444Z,8.90
2017-12-24T05:13:49.989Z,8.90
2017-12-24T05:16:17.488Z,8.90
2017-12-24T05:18:45.354Z,8.90
2017-12-24T05:21:12.879Z,8.90
2017-12-24T05:23:40.428Z,8.90
2017-12-24T05:26:07.935Z,8.90
2017-12-24T05:28:36.220Z,8.80
2017-12-24T05:31:04.535Z,8.80
2017-12-24T05:33:32.044Z,8.80
2017-12-24T05:35:59.589Z,8.80
2017-12-24T05:38:27.095Z,8.80
2017-12-24T05:40:54.647Z,8.80
2017-12-24T05:43:22.153Z,8.80
2017-12-24T05:45:49.705Z,8.80
2017-12-24T05:48:17.203Z,8.70
2017-12-24T05:50:44.764Z,8.70
2017-12-24T05:53:12.321Z,8.70
2017-12-24T05:55:39.883Z,8.70
2017-12-24T05:58:07.397Z,8.70
2017-12-24T06:00:35.683Z,8.70
2017-12-24T06:03:03.223Z,8.70
2017-12-24T06:05:30.731Z,8.70
2017-12-24T06:07:58.276Z,8.70
2017-12-24T06:10:25.797Z,8.70
2017-12-24T06:12:53.349Z,8.70
2017-12-24T06:15:21.624Z,8.70
2017-12-24T06:17:49.164Z,8.70
2017-12-24T06:20:16.664Z,8.60
2017-12-24T06:22:44.216Z,8.60
2017-12-24T06:25:11.728Z,8.60
2017-12-24T06:27:40.060Z,8.60
2017-12-24T06:30:07.564Z,8.60
2017-12-24T06:32:35.103Z,8.60
2017-12-24T06:35:02.653Z,8.60
2017-12-24T06:37:30.172Z,8.60
2017-12-24T06:39:57.712Z,8.60
2017-12-24T06:42:25.220Z,8.60
2017-12-24T06:44:52.765Z,8.60
2017-12-24T06:47:20.272Z,8.60
2017-12-24T06:49:47.844Z,8.50
2017-12-24T06:52:15.346Z,8.50
2017-12-24T06:54:43.624Z,8.50
2017-12-24T06:57:11.932Z,8.50
2017-12-24T06:59:39.432Z,8.50
2017-12-24T07:02:06.980Z,8.50
2017-12-24T07:04:34.484Z,8.50
2017-12-24T07:07:02.020Z,8.50
2017-12-24T07:09:29.524Z,8.60
2017-12-24T07:11:57.089Z,8.60
2017-12-24T07:14:24.599Z,8.60
2017-12-24T07:16:52.319Z,8.60
2017-12-24T07:19:19.824Z,8.60
2017-12-24T07:21:47.336Z,8.60
2017-12-24T07:24:15.778Z,8.70
2017-12-24T07:26:43.284Z,8.70
2017-12-24T07:29:10.840Z,8.70
2017-12-24T07:31:38.368Z,8.70
2017-12-24T07:34:06.771Z,8.70
2017-12-24T07:36:34.283Z,8.70
2017-12-24T07:39:05.543Z,8.70
2017-12-24T07:41:33.132Z,8.70
2017-12-24T07:44:01.453Z,8.70
2017-12-24T07:46:28.957Z,8.70
2017-12-24T07:48:56.511Z,8.70
2017-12-24T07:51:24.024Z,8.70
2017-12-24T07:53:51.563Z,8.70
2017-12-24T07:56:19.108Z,8.80
2017-12-24T07:58:46.608Z,8.80
2017-12-24T08:01:14.163Z,8.70
2017-12-24T08:03:41.663Z,8.80
2017-12-24T08:06:09.210Z,8.80
2017-12-24T08:08:36.740Z,8.80
2017-12-24T08:11:04.396Z,8.80
2017-12-24T08:13:31.904Z,8.90
2017-12-24T08:16:00.217Z,8.90
2017-12-24T08:18:27.734Z,8.90
2017-12-24T08:20:55.300Z,8.90
2017-12-24T08:23:22.817Z,8.90
2017-12-24T08:25:50.339Z,9.00
2017-12-24T08:28:17.887Z,9.00
2017-12-24T08:30:45.402Z,9.00
2017-12-24T08:33:12.944Z,9.00
2017-12-24T08:35:40.453Z,9.10
2017-12-24T08:38:07.992Z,9.10
2017-12-24T08:40:35.496Z,9.10
2017-12-24T08:43:03.048Z,9.20
2017-12-24T08:45:30.615Z,9.20
2017-12-24T08:47:58.168Z,9.20
2017-12-24T08:50:25.697Z,9.30
2017-12-24T08:52:54.020Z,9.30
2017-12-24T08:55:21.529Z,9.30
2017-12-24T08:57:49.109Z,9.40
2017-12-24T09:00:17.429Z,9.40
2017-12-24T09:02:45.702Z,9.40
2017-12-24T09:05:14.056Z,9.50
2017-12-24T09:07:41.562Z,9.50
2017-12-24T09:10:09.104Z,9.50
2017-12-24T09:12:36.610Z,9.50
2017-12-24T09:15:04.936Z,9.50
2017-12-24T09:17:32.440Z,9.50
2017-12-24T09:19:59.979Z,9.50
2017-12-24T09:22:27.484Z,9.50
2017-12-24T09:24:55.047Z,9.50
2017-12-24T09:27:22.550Z,9.50
2017-12-24T09:29:50.059Z,9.50
2017-12-24T09:32:17.617Z,9.50
2017-12-24T09:34:45.149Z,9.50
2017-12-24T09:37:12.708Z,9.50
2017-12-24T09:39:40.245Z,9.50
2017-12-24T09:42:07.792Z,9.50
2017-12-24T09:44:36.068Z,9.60
2017-12-24T09:47:03.633Z,9.60
2017-12-24T09:49:32.020Z,9.60
2017-12-24T09:51:59.527Z,9.60
2017-12-24T09:54:27.064Z,9.70
2017-12-24T09:56:54.577Z,9.80
2017-12-24T10:01:56.765Z,9.90
2017-12-24T10:04:24.319Z,9.90
2017-12-24T10:06:51.834Z,9.90
2017-12-24T10:09:19.400Z,10.00
2017-12-24T10:11:46.930Z,10.00
2017-12-24T10:14:14.500Z,10.00
2017-12-24T10:16:42.008Z,10.10
2017-12-24T10:19:10.287Z,10.10
2017-12-24T10:21:38.606Z,10.10
2017-12-24T10:24:06.120Z,10.10
2017-12-24T10:26:33.677Z,10.10
2017-12-24T10:29:01.195Z,10.20
2017-12-24T10:31:29.719Z,10.20
2017-12-24T10:33:57.246Z,10.20
2017-12-24T10:36:24.860Z,10.20
2017-12-24T10:38:52.422Z,10.20
2017-12-24T10:41:20.704Z,10.20
2017-12-24T10:43:49.024Z,10.30
2017-12-24T10:46:16.560Z,10.30
2017-12-24T10:48:44.873Z,10.40
2017-12-24T10:51:12.393Z,10.40
2017-12-24T10:53:39.944Z,10.40
2017-12-24T10:56:09.121Z,10.50
2017-12-24T10:58:36.680Z,10.50
2017-12-24T11:01:04.980Z,10.60
2017-12-24T11:03:32.542Z,10.60
2017-12-24T11:06:00.817Z,10.60
2017-12-24T11:08:28.398Z,10.60
2017-12-24T11:10:55.928Z,10.60
2017-12-24T11:13:23.470Z,10.60
2017-12-24T11:15:51.021Z,10.60
2017-12-24T11:18:19.304Z,10.70
2017-12-24T11:20:46.949Z,10.70
2017-12-24T11:23:14.515Z,10.70
2017-12-24T11:25:42.063Z,10.70
2017-12-24T11:28:09.572Z,10.80
2017-12-24T11:30:37.155Z,10.80
2017-12-24T11:33:04.665Z,10.80
2017-12-24T11:35:32.216Z,10.90
2017-12-24T11:38:00.487Z,10.90
2017-12-24T11:40:28.179Z,10.90
2017-12-24T11:42:56.464Z,11.00
2017-12-24T11:45:23.975Z,11.00
2017-12-24T11:47:51.512Z,11.10
2017-12-24T11:50:19.785Z,11.10
2017-12-24T11:52:47.312Z,11.10
2017-12-24T11:55:14.855Z,11.20
2017-12-24T11:57:43.133Z,11.20
2017-12-24T12:00:11.432Z,11.20
2017-12-24T12:02:38.944Z,11.10
2017-12-24T12:05:06.495Z,11.20
2017-12-24T12:07:34.869Z,11.20
2017-12-24T12:10:03.196Z,11.20
2017-12-24T12:12:30.705Z,11.20
2017-12-24T12:14:58.248Z,11.20
2017-12-24T12:17:25.769Z,11.10
2017-12-24T12:19:54.080Z,11.00
2017-12-24T12:22:21.598Z,11.00
2017-12-24T12:24:49.916Z,10.80
2017-12-24T12:27:18.205Z,10.80
2017-12-24T12:29:46.527Z,10.80
2017-12-24T12:32:14.070Z,10.80
2017-12-24T12:34:41.576Z,10.80
2017-12-24T12:37:09.899Z,10.80
2017-12-24T12:39:37.417Z,10.80
2017-12-24T12:42:05.739Z,10.80
2017-12-24T12:44:33.256Z,10.80
2017-12-24T12:47:01.596Z,10.70
2017-12-24T12:49:29.103Z,10.80
2017-12-24T12:51:56.684Z,10.70
2017-12-24T12:54:24.227Z,10.70
2017-12-24T12:56:51.741Z,10.70
2017-12-24T12:59:19.288Z,10.70
2017-12-24T13:01:46.812Z,10.70
2017-12-24T13:04:14.368Z,10.70
2017-12-24T13:06:42.644Z,10.80
2017-12-24T13:09:11.012Z,10.70
2017-12-24T13:11:38.532Z,10.70
2017-12-24T13:14:06.105Z,10.70
2017-12-24T13:16:33.659Z,10.70
2017-12-24T13:19:01.981Z,10.70
2017-12-24T13:21:29.496Z,10.70
2017-12-24T13:23:57.084Z,10.60
2017-12-24T13:26:24.597Z,10.70
2017-12-24T13:28:52.105Z,10.70
2017-12-24T13:31:19.656Z,10.70
2017-12-24T13:33:47.166Z,10.70
2017-12-24T13:36:14.730Z,10.70
2017-12-24T13:38:42.246Z,10.70
2017-12-24T13:41:09.787Z,10.70
2017-12-24T13:43:37.543Z,10.60
2017-12-24T13:46:05.113Z,10.60
2017-12-24T13:48:32.676Z,10.60
2017-12-24T13:51:00.199Z,10.50
2017-12-24T13:53:28.532Z,10.50
2017-12-24T13:55:56.063Z,10.50
2017-12-24T13:58:23.632Z,10.50
2017-12-24T14:00:51.202Z,10.50
2017-12-24T14:03:18.774Z,10.50
2017-12-24T14:05:46.312Z,10.50
2017-12-24T14:08:13.912Z,10.50
2017-12-24T14:10:41.458Z,10.40
2017-12-24T14:13:09.326Z,10.40
2017-12-24T14:15:36.958Z,10.40
2017-12-24T14:18:04.512Z,10.30
2017-12-24T14:20:32.075Z,10.30
2017-12-24T14:22:59.600Z,10.30
2017-12-24T14:25:27.153Z,10.20
2017-12-24T14:27:54.681Z,10.30
2017-12-24T14:30:22.232Z,10.20
2017-12-24T14:32:49.748Z,10.20
2017-12-24T14:35:17.305Z,10.20
2017-12-24T14:37:44.867Z,10.20
2017-12-24T14:40:12.452Z,10.20
2017-12-24T14:42:39.977Z,10.20
2017-12-24T14:45:07.500Z,10.20
2017-12-24T14:47:35.052Z,10.10
2017-12-24T14:50:03.592Z,10.10
2017-12-24T14:52:31.172Z,10.10
2017-12-24T14:54:58.694Z,10.00
2017-12-24T14:57:26.247Z,10.00
2017-12-24T14:59:53.772Z,10.00
2017-12-24T15:02:22.103Z,10.00
2017-12-24T15:04:49.633Z,9.90
2017-12-24T15:07:17.963Z,9.90
2017-12-24T15:09:45.467Z,9.90
2017-12-24T15:12:13.036Z,9.90
2017-12-24T15:14:40.544Z,9.80
2017-12-24T15:17:08.055Z,9.80
2017-12-24T15:19:35.596Z,9.80
2017-12-24T15:22:03.107Z,9.80
2017-12-24T15:24:30.688Z,9.80
2017-12-24T15:26:58.187Z,9.80
2017-12-24T15:29:25.737Z,9.80
2017-12-24T15:31:53.245Z,9.80
2017-12-24T15:34:21.557Z,9.70
2017-12-24T15:36:49.073Z,9.70
2017-12-24T15:39:16.652Z,9.70
2017-12-24T15:41:44.267Z,9.70
2017-12-24T15:44:11.817Z,9.70
2017-12-24T15:46:40.191Z,9.60
2017-12-24T15:49:07.723Z,9.60
2017-12-24T15:51:35.327Z,9.60
2017-12-24T15:54:02.889Z,9.60
2017-12-24T15:56:30.436Z,9.60
2017-12-24T15:58:57.936Z,9.50
2017-12-24T16:01:25.544Z,9.50
2017-12-24T16:03:53.036Z,9.50
2017-12-24T16:06:20.584Z,9.50
2017-12-24T16:08:48.851Z,9.50
2017-12-24T16:11:16.392Z,9.50
2017-12-24T16:13:43.905Z,9.40
2017-12-24T16:16:11.475Z,9.40
2017-12-24T16:18:38.997Z,9.40
2017-12-24T16:21:06.549Z,9.40
2017-12-24T16:23:34.137Z,9.40
2017-12-24T16:26:01.658Z,9.40
2017-12-24T16:28:29.215Z,9.40
2017-12-24T16:30:56.724Z,9.40
2017-12-24T16:33:24.287Z,9.40
2017-12-24T16:35:51.799Z,9.40
2017-12-24T16:38:19.343Z,9.40
2017-12-24T16:40:46.860Z,9.30
2017-12-24T16:43:14.417Z,9.30
2017-12-24T16:45:41.950Z,9.30
2017-12-24T16:48:09.464Z,9.40
2017-12-24T16:50:37.024Z,9.40
2017-12-24T16:53:04.527Z,9.40
2017-12-24T16:55:32.069Z,9.40
2017-12-24T16:57:59.584Z,9.30
2017-12-24T17:00:27.138Z,9.40
2017-12-24T17:02:54.641Z,9.30
2017-12-24T17:05:22.199Z,9.30
2017-12-24T17:07:49.716Z,9.30
2017-12-24T17:10:17.277Z,9.30
2017-12-24T17:12:45.552Z,9.30
2017-12-24T17:15:13.063Z,9.30
2017-12-24T17:17:40.611Z,9.30
2017-12-24T17:20:08.894Z,9.30
2017-12-24T17:22:37.212Z,9.30
2017-12-24T17:25:04.735Z,9.30
2017-12-24T17:27:32.284Z,9.30
2017-12-24T17:30:00.739Z,9.30
2017-12-24T17:32:28.292Z,9.30
2017-12-24T17:34:56.581Z,9.30
2017-12-24T17:37:24.947Z,9.30
2017-12-24T17:39:52.465Z,9.30
2017-12-24T17:42:20.036Z,9.30
2017-12-24T17:44:48.325Z,9.30
2017-12-24T17:47:16.600Z,9.30
2017-12-24T17:49:44.908Z,9.40
2017-12-24T17:52:12.428Z,9.40
2017-12-24T17:54:39.979Z,9.50
2017-12-24T17:57:07.497Z,9.40
2017-12-24T17:59:35.063Z,9.50
2017-12-24T18:02:02.573Z,9.50
2017-12-24T18:04:30.121Z,9.50
2017-12-24T18:06:58.400Z,9.40
2017-12-24T18:09:26.716Z,9.30
2017-12-24T18:11:54.279Z,9.30
2017-12-24T18:14:22.619Z,9.40
2017-12-24T18:16:50.937Z,9.30
2017-12-24T18:19:18.462Z,9.30
2017-12-24T18:21:46.012Z,9.30
2017-12-24T18:24:14.288Z,9.30
2017-12-24T18:26:41.835Z,9.30
2017-12-24T18:29:09.358Z,9.30
2017-12-24T18:31:36.923Z,9.30
2017-12-24T18:34:04.448Z,9.30
2017-12-24T18:36:32.007Z,9.30
2017-12-24T18:38:59.541Z,9.40
2017-12-24T18:41:27.122Z,9.40
2017-12-24T18:43:54.636Z,9.40
2017-12-24T18:46:22.144Z,9.40
2017-12-24T18:48:50.465Z,9.40
2017-12-24T18:51:17.983Z,9.40
2017-12-24T18:53:45.540Z,9.40
2017-12-24T18:56:13.072Z,9.30
2017-12-24T18:58:40.624Z,9.30
2017-12-24T19:01:08.912Z,9.30
2017-12-24T19:03:37.229Z,9.20
2017-12-24T19:06:04.745Z,9.20
2017-12-24T19:08:32.326Z,9.30
2017-12-24T19:10:59.836Z,9.40
2017-12-24T19:13:27.339Z,9.50
2017-12-24T19:15:54.884Z,9.40
2017-12-24T19:18:22.418Z,9.40
2017-12-24T19:20:49.985Z,9.30
2017-12-24T19:23:17.495Z,9.40
2017-12-24T19:25:45.087Z,9.30
2017-12-24T19:28:12.600Z,9.20
2017-12-24T19:30:40.160Z,9.20
2017-12-24T19:33:07.668Z,9.20
2017-12-24T19:35:36.005Z,9.20
2017-12-24T19:38:04.643Z,9.10
2017-12-24T19:40:32.927Z,9.10
2017-12-24T19:43:00.472Z,9.10
2017-12-24T19:45:27.993Z,9.20
2017-12-24T19:47:55.563Z,9.20
2017-12-24T19:50:23.101Z,9.20
2017-12-24T19:52:50.660Z,9.20
2017-12-24T19:55:18.175Z,9.20
2017-12-24T19:57:45.732Z,9.20
2017-12-24T20:00:13.252Z,9.20
2017-12-24T20:02:40.812Z,9.20
2017-12-24T20:05:08.327Z,9.20
2017-12-24T20:07:35.856Z,9.20
2017-12-24T20:10:03.412Z,9.20
2017-12-24T20:12:30.942Z,9.20
2017-12-24T20:14:58.501Z,9.10
2017-12-24T20:17:26.028Z,9.10
2017-12-24T20:19:53.589Z,9.20
2017-12-24T20:22:21.901Z,9.10
2017-12-24T20:24:49.448Z,9.10
2017-12-24T20:27:17.763Z,9.10
2017-12-24T20:29:45.392Z,9.10
2017-12-24T20:32:12.875Z,9.10
2017-12-24T20:34:40.394Z,9.10
2017-12-24T20:37:07.944Z,9.20
2017-12-24T20:39:35.467Z,9.30
2017-12-24T20:42:03.025Z,9.40
2017-12-24T20:44:30.547Z,9.40
2017-12-24T20:46:58.100Z,9.40
2017-12-24T20:49:25.610Z,9.50
2017-12-24T20:51:53.186Z,9.60
2017-12-24T20:54:20.728Z,9.60
2017-12-24T20:56:49.045Z,9.60
2017-12-24T20:59:16.549Z,9.60
2017-12-24T21:01:44.117Z,9.50
2017-12-24T21:04:11.635Z,9.60
2017-12-24T21:06:39.912Z,9.60
2017-12-24T21:09:07.465Z,9.60
2017-12-24T21:11:34.967Z,9.50
2017-12-24T21:14:03.304Z,9.30
2017-12-24T21:16:31.580Z,9.20
2017-12-24T21:18:59.119Z,9.20
2017-12-24T21:21:27.392Z,9.10
2017-12-24T21:23:56.982Z,9.10
2017-12-24T21:26:24.499Z,9.10
2017-12-24T21:28:52.040Z,9.10
2017-12-24T21:31:19.554Z,9.00
2017-12-24T21:33:47.107Z,9.00
2017-12-24T21:36:14.609Z,9.00
2017-12-24T21:38:42.115Z,9.00
2017-12-24T21:41:09.658Z,8.90
2017-12-24T21:43:37.175Z,8.90
2017-12-24T21:46:04.723Z,8.90
2017-12-24T21:48:32.226Z,8.90
2017-12-24T21:50:59.767Z,8.90
2017-12-24T21:53:27.279Z,8.90
2017-12-24T21:55:54.853Z,8.90
2017-12-24T21:58:22.365Z,8.90
2017-12-24T22:00:49.900Z,9.00
2017-12-24T22:03:18.212Z,9.00
2017-12-24T22:05:46.490Z,9.00
2017-12-24T22:08:14.816Z,8.90
2017-12-24T22:10:42.319Z,8.90
2017-12-24T22:13:09.872Z,8.90
2017-12-24T22:15:37.371Z,8.90
2017-12-24T22:18:04.928Z,8.90
2017-12-24T22:20:32.440Z,8.90
2017-12-24T22:23:00.769Z,8.80
2017-12-24T22:25:28.277Z,8.80
2017-12-24T22:27:56.059Z,8.80
2017-12-24T22:30:23.756Z,8.80
2017-12-24T22:32:51.495Z,8.80
2017-12-24T22:35:19.119Z,8.80
2017-12-24T22:37:47.419Z,8.80
2017-12-24T22:40:15.188Z,8.80
2017-12-24T22:42:43.456Z,8.80
2017-12-24T22:45:11.009Z,8.70
2017-12-24T22:47:38.515Z,8.80
2017-12-24T22:50:06.852Z,8.70
2017-12-24T22:52:34.367Z,8.70
2017-12-24T22:55:02.685Z,8.70
2017-12-24T22:57:30.189Z,8.70
2017-12-24T22:59:57.728Z,8.70
2017-12-24T23:02:25.235Z,8.70
2017-12-24T23:04:52.752Z,8.80
2017-12-24T23:07:21.066Z,8.70
2017-12-24T23:09:48.568Z,8.70
2017-12-24T23:12:16.110Z,8.70
2017-12-24T23:14:43.621Z,8.70
2017-12-24T23:17:11.172Z,8.70
2017-12-24T23:19:38.671Z,8.70
2017-12-24T23:22:06.231Z,8.70
2017-12-24T23:24:33.737Z,8.70
2017-12-24T23:27:02.071Z,8.60
2017-12-24T23:29:29.581Z,8.60
2017-12-24T23:31:57.096Z,8.60
2017-12-24T23:34:24.637Z,8.60
2017-12-24T23:36:52.168Z,8.60
2017-12-24T23:39:19.719Z,8.60
2017-12-24T23:41:47.223Z,8.60
2017-12-24T23:44:14.771Z,8.60
2017-12-24T23:46:42.271Z,8.60
2017-12-24T23:49:09.821Z,8.60
2017-12-24T23:51:37.331Z,8.60
2017-12-24T23:54:04.879Z,8.60
2017-12-24T23:56:32.391Z,8.60
2017-12-24T23:59:00.712Z,8.60
